sensor_id;sensor_type;location;lat;lon;timestamp;pressure;altitude;pressure_sealevel;temperature;humidity
20228;BME280;12195;55.790;37.572;2022-12-24T00:00:11;98824.50;;;4.40;79.17
20228;BME280;12195;55.790;37.572;2022-12-24T00:02:37;98830.75;;;4.36;79.39
20228;BME280;12195;55.790;37.572;2022-12-24T00:05:10;98837.78;;;4.34;79.75
20228;BME280;12195;55.790;37.572;2022-12-24T00:07:42;98823.99;;;4.32;79.98
20228;BME280;12195;55.790;37.572;2022-12-24T00:10:14;98827.45;;;4.32;80.12
20228;BME280;12195;55.790;37.572;2022-12-24T00:12:46;98820.58;;;4.31;80.02
20228;BME280;12195;55.790;37.572;2022-12-24T00:15:18;98813.60;;;4.32;79.87
20228;BME280;12195;55.790;37.572;2022-12-24T00:17:50;98811.92;;;4.31;79.92
20228;BME280;12195;55.790;37.572;2022-12-24T00:20:22;98806.79;;;4.29;80.25
20228;BME280;12195;55.790;37.572;2022-12-24T00:22:54;98804.35;;;4.26;80.40
20228;BME280;12195;55.790;37.572;2022-12-24T00:25:26;98816.48;;;4.26;80.45
20228;BME280;12195;55.790;37.572;2022-12-24T00:27:59;98815.50;;;4.28;80.36
20228;BME280;12195;55.790;37.572;2022-12-24T00:30:31;98825.03;;;4.28;80.57
20228;BME280;12195;55.790;37.572;2022-12-24T00:33:03;98824.98;;;4.29;80.74
20228;BME280;12195;55.790;37.572;2022-12-24T00:35:37;98823.30;;;4.28;80.71
20228;BME280;12195;55.790;37.572;2022-12-24T00:38:09;98827.57;;;4.29;80.96
20228;BME280;12195;55.790;37.572;2022-12-24T00:40:41;98830.11;;;4.31;80.91
20228;BME280;12195;55.790;37.572;2022-12-24T00:43:13;98816.99;;;4.34;80.85
20228;BME280;12195;55.790;37.572;2022-12-24T00:45:46;98836.80;;;4.36;80.81
20228;BME280;12195;55.790;37.572;2022-12-24T00:48:18;98834.70;;;4.44;80.19
20228;BME280;12195;55.790;37.572;2022-12-24T00:50:50;98835.63;;;4.43;80.21
20228;BME280;12195;55.790;37.572;2022-12-24T00:53:22;98842.44;;;4.46;79.79
20228;BME280;12195;55.790;37.572;2022-12-24T00:55:55;98852.55;;;4.52;79.42
20228;BME280;12195;55.790;37.572;2022-12-24T00:58:27;98841.59;;;4.45;79.10
20228;BME280;12195;55.790;37.572;2022-12-24T01:00:58;98843.36;;;4.45;79.05
20228;BME280;12195;55.790;37.572;2022-12-24T01:03:31;98841.39;;;4.50;78.33
20228;BME280;12195;55.790;37.572;2022-12-24T01:06:09;98848.27;;;4.51;78.13
20228;BME280;12195;55.790;37.572;2022-12-24T01:08:42;98826.91;;;4.44;78.12
20228;BME280;12195;55.790;37.572;2022-12-24T01:11:14;98833.91;;;4.42;78.13
20228;BME280;12195;55.790;37.572;2022-12-24T01:13:46;98833.22;;;4.39;78.38
20228;BME280;12195;55.790;37.572;2022-12-24T01:16:20;98836.86;;;4.35;78.52
20228;BME280;12195;55.790;37.572;2022-12-24T01:18:52;98837.84;;;4.32;78.79
20228;BME280;12195;55.790;37.572;2022-12-24T01:21:24;98845.63;;;4.32;79.06
20228;BME280;12195;55.790;37.572;2022-12-24T01:23:57;98833.63;;;4.30;79.21
20228;BME280;12195;55.790;37.572;2022-12-24T01:26:29;98832.01;;;4.27;79.35
20228;BME280;12195;55.790;37.572;2022-12-24T01:29:01;98834.55;;;4.29;79.21
20228;BME280;12195;55.790;37.572;2022-12-24T01:31:34;98832.92;;;4.26;79.32
20228;BME280;12195;55.790;37.572;2022-12-24T01:34:06;98832.19;;;4.23;79.70
20228;BME280;12195;55.790;37.572;2022-12-24T01:36:38;98832.52;;;4.35;79.68
20228;BME280;12195;55.790;37.572;2022-12-24T01:39:10;98832.13;;;4.24;79.47
20228;BME280;12195;55.790;37.572;2022-12-24T01:41:42;98830.58;;;4.20;79.64
20228;BME280;12195;55.790;37.572;2022-12-24T01:44:37;98840.11;;;4.20;79.68
20228;BME280;12195;55.790;37.572;2022-12-24T01:47:26;98834.22;;;4.16;79.82
20228;BME280;12195;55.790;37.572;2022-12-24T01:49:55;98832.72;;;4.11;80.11
20228;BME280;12195;55.790;37.572;2022-12-24T01:52:31;98834.40;;;4.12;79.93
20228;BME280;12195;55.790;37.572;2022-12-24T01:55:05;98839.59;;;4.12;80.16
20228;BME280;12195;55.790;37.572;2022-12-24T01:57:42;98839.53;;;4.13;80.36
20228;BME280;12195;55.790;37.572;2022-12-24T02:00:15;98836.05;;;4.14;80.40
20228;BME280;12195;55.790;37.572;2022-12-24T02:02:49;98845.58;;;4.14;80.50
20228;BME280;12195;55.790;37.572;2022-12-24T02:05:31;98854.23;;;4.14;80.68
20228;BME280;12195;55.790;37.572;2022-12-24T02:08:04;98843.75;;;4.16;80.56
20228;BME280;12195;55.790;37.572;2022-12-24T02:10:36;98854.02;;;4.19;80.44
20228;BME280;12195;55.790;37.572;2022-12-24T02:13:08;98851.42;;;4.19;80.41
20228;BME280;12195;55.790;37.572;2022-12-24T02:18:25;98853.03;;;4.21;80.51
20228;BME280;12195;55.790;37.572;2022-12-24T02:32:21;98863.95;;;4.29;80.00
20228;BME280;12195;55.790;37.572;2022-12-24T02:35:12;98870.82;;;4.30;80.08
20228;BME280;12195;55.790;37.572;2022-12-24T02:37:51;98865.56;;;4.32;79.92
20228;BME280;12195;55.790;37.572;2022-12-24T02:40:24;98862.97;;;4.32;79.92
20228;BME280;12195;55.790;37.572;2022-12-24T02:43:00;98869.72;;;4.36;79.60
20228;BME280;12195;55.790;37.572;2022-12-24T02:45:33;98865.44;;;4.35;79.50
20228;BME280;12195;55.790;37.572;2022-12-24T02:48:06;98864.52;;;4.36;79.37
20228;BME280;12195;55.790;37.572;2022-12-24T02:50:52;98864.58;;;4.34;78.96
20228;BME280;12195;55.790;37.572;2022-12-24T02:53:13;98873.36;;;4.32;79.23
20228;BME280;12195;55.790;37.572;2022-12-24T03:07:02;98848.64;;;4.23;79.72
20228;BME280;12195;55.790;37.572;2022-12-24T03:09:37;98853.89;;;4.22;79.92
20228;BME280;12195;55.790;37.572;2022-12-24T03:12:10;98853.83;;;4.23;79.78
20228;BME280;12195;55.790;37.572;2022-12-24T03:14:43;98851.17;;;4.25;79.89
20228;BME280;12195;55.790;37.572;2022-12-24T03:17:18;98852.00;;;4.25;79.86
20228;BME280;12195;55.790;37.572;2022-12-24T03:19:51;98842.34;;;4.29;79.73
20228;BME280;12195;55.790;37.572;2022-12-24T03:22:24;98846.61;;;4.30;79.72
20228;BME280;12195;55.790;37.572;2022-12-24T03:24:58;98844.84;;;4.30;79.69
20228;BME280;12195;55.790;37.572;2022-12-24T03:27:33;98838.82;;;4.30;79.70
20228;BME280;12195;55.790;37.572;2022-12-24T03:30:12;98848.17;;;4.34;79.51
20228;BME280;12195;55.790;37.572;2022-12-24T03:32:45;98857.64;;;4.35;79.45
20228;BME280;12195;55.790;37.572;2022-12-24T03:35:17;98852.45;;;4.35;79.25
20228;BME280;12195;55.790;37.572;2022-12-24T03:37:50;98854.12;;;4.36;79.13
20228;BME280;12195;55.790;37.572;2022-12-24T03:40:22;98849.91;;;4.33;79.35
20228;BME280;12195;55.790;37.572;2022-12-24T03:42:54;98847.38;;;4.32;79.43
20228;BME280;12195;55.790;37.572;2022-12-24T03:45:26;98854.28;;;4.33;79.46
20228;BME280;12195;55.790;37.572;2022-12-24T03:47:58;98854.19;;;4.34;79.53
20228;BME280;12195;55.790;37.572;2022-12-24T03:50:30;98851.59;;;4.34;79.64
20228;BME280;12195;55.790;37.572;2022-12-24T03:53:02;98852.39;;;4.36;79.51
20228;BME280;12195;55.790;37.572;2022-12-24T03:55:34;98858.34;;;4.38;79.39
20228;BME280;12195;55.790;37.572;2022-12-24T03:58:06;98860.88;;;4.40;79.17
20228;BME280;12195;55.790;37.572;2022-12-24T04:00:38;98849.66;;;4.39;79.29
20228;BME280;12195;55.790;37.572;2022-12-24T04:03:10;98851.47;;;4.37;79.22
20228;BME280;12195;55.790;37.572;2022-12-24T04:05:42;98843.67;;;4.37;79.16
20228;BME280;12195;55.790;37.572;2022-12-24T04:08:14;98853.24;;;4.37;79.07
20228;BME280;12195;55.790;37.572;2022-12-24T04:10:47;98844.59;;;4.36;79.04
20228;BME280;12195;55.790;37.572;2022-12-24T04:13:19;98853.30;;;4.35;79.15
20228;BME280;12195;55.790;37.572;2022-12-24T04:15:59;98847.38;;;4.32;79.17
20228;BME280;12195;55.790;37.572;2022-12-24T04:18:31;98849.91;;;4.33;78.94
20228;BME280;12195;55.790;37.572;2022-12-24T04:21:05;98844.72;;;4.33;78.95
20228;BME280;12195;55.790;37.572;2022-12-24T04:23:39;98843.09;;;4.31;79.08
20228;BME280;12195;55.790;37.572;2022-12-24T04:26:12;98835.30;;;4.31;79.24
20228;BME280;12195;55.790;37.572;2022-12-24T04:28:44;98844.78;;;4.32;79.18
20228;BME280;12195;55.790;37.572;2022-12-24T04:31:17;98848.36;;;4.29;79.15
20228;BME280;12195;55.790;37.572;2022-12-24T04:33:50;98838.82;;;4.30;79.10
20228;BME280;12195;55.790;37.572;2022-12-24T04:36:23;98845.82;;;4.28;79.24
20228;BME280;12195;55.790;37.572;2022-12-24T04:38:55;98838.03;;;4.28;79.19
20228;BME280;12195;55.790;37.572;2022-12-24T04:41:26;98823.48;;;4.24;79.34
20228;BME280;12195;55.790;37.572;2022-12-24T04:43:58;98827.13;;;4.20;79.42
20228;BME280;12195;55.790;37.572;2022-12-24T04:46:30;98825.50;;;4.17;79.62
20228;BME280;12195;55.790;37.572;2022-12-24T04:49:03;98829.02;;;4.16;79.69
20228;BME280;12195;55.790;37.572;2022-12-24T04:51:35;98836.11;;;4.13;79.97
20228;BME280;12195;55.790;37.572;2022-12-24T04:54:07;98829.20;;;4.12;80.06
20228;BME280;12195;55.790;37.572;2022-12-24T04:56:39;98827.52;;;4.11;79.82
20228;BME280;12195;55.790;37.572;2022-12-24T04:59:11;98829.42;;;4.07;79.99
20228;BME280;12195;55.790;37.572;2022-12-24T05:01:44;98834.55;;;4.09;79.80
20228;BME280;12195;55.790;37.572;2022-12-24T05:04:16;98827.74;;;4.06;79.80
20228;BME280;12195;55.790;37.572;2022-12-24T05:06:48;98827.01;;;4.03;80.00
20228;BME280;12195;55.790;37.572;2022-12-24T05:09:20;98825.39;;;4.00;80.22
20228;BME280;12195;55.790;37.572;2022-12-24T05:11:52;98821.05;;;4.01;80.47
20228;BME280;12195;55.790;37.572;2022-12-24T05:14:24;98827.92;;;4.02;80.49
20228;BME280;12195;55.790;37.572;2022-12-24T05:16:56;98820.98;;;4.02;80.72
20228;BME280;12195;55.790;37.572;2022-12-24T05:19:28;98825.20;;;4.05;80.80
20228;BME280;12195;55.790;37.572;2022-12-24T05:22:00;98812.22;;;4.05;80.90
20228;BME280;12195;55.790;37.572;2022-12-24T05:24:50;98822.33;;;4.11;80.93
20228;BME280;12195;55.790;37.572;2022-12-24T05:27:40;98812.73;;;4.13;80.97
20228;BME280;12195;55.790;37.572;2022-12-24T05:30:14;98815.91;;;4.19;80.73
20228;BME280;12195;55.790;37.572;2022-12-24T05:32:46;98822.78;;;4.20;80.79
20228;BME280;12195;55.790;37.572;2022-12-24T05:35:18;98808.88;;;4.21;80.73
20228;BME280;12195;55.790;37.572;2022-12-24T05:37:50;98807.07;;;4.23;80.66
20228;BME280;12195;55.790;37.572;2022-12-24T05:40:22;98801.75;;;4.26;80.78
20228;BME280;12195;55.790;37.572;2022-12-24T05:42:54;98802.58;;;4.27;80.85
20228;BME280;12195;55.790;37.572;2022-12-24T05:45:27;98805.88;;;4.30;81.08
20228;BME280;12195;55.790;37.572;2022-12-24T05:47:59;98811.92;;;4.31;80.87
20228;BME280;12195;55.790;37.572;2022-12-24T05:50:31;98804.13;;;4.31;80.87
20228;BME280;12195;55.790;37.572;2022-12-24T05:53:05;98813.66;;;4.30;80.92
20228;BME280;12195;55.790;37.572;2022-12-24T05:55:37;98808.41;;;4.32;80.88
20228;BME280;12195;55.790;37.572;2022-12-24T05:58:09;98810.12;;;4.33;80.64
20228;BME280;12195;55.790;37.572;2022-12-24T06:00:41;98804.00;;;4.34;80.78
20228;BME280;12195;55.790;37.572;2022-12-24T06:03:14;98809.20;;;4.34;80.64
20228;BME280;12195;55.790;37.572;2022-12-24T06:05:46;98810.12;;;4.33;80.66
20228;BME280;12195;55.790;37.572;2022-12-24T06:08:18;98811.92;;;4.31;80.60
20228;BME280;12195;55.790;37.572;2022-12-24T06:10:55;98805.97;;;4.29;80.72
20228;BME280;12195;55.790;37.572;2022-12-24T06:13:28;98804.25;;;4.28;80.52
20228;BME280;12195;55.790;37.572;2022-12-24T06:16:02;98804.25;;;4.28;80.51
20228;BME280;12195;55.790;37.572;2022-12-24T06:18:36;98803.49;;;4.26;80.56
20228;BME280;12195;55.790;37.572;2022-12-24T06:21:09;98803.49;;;4.26;80.56
20228;BME280;12195;55.790;37.572;2022-12-24T06:23:42;98801.14;;;4.20;80.88
20228;BME280;12195;55.790;37.572;2022-12-24T06:26:20;98798.55;;;4.20;80.94
20228;BME280;12195;55.790;37.572;2022-12-24T06:28:52;98800.27;;;4.21;81.17
20228;BME280;12195;55.790;37.572;2022-12-24T06:31:24;98803.68;;;4.21;81.28
20228;BME280;12195;55.790;37.572;2022-12-24T06:33:57;98800.20;;;4.22;81.10
20228;BME280;12195;55.790;37.572;2022-12-24T06:36:29;98801.88;;;4.23;81.22
20228;BME280;12195;55.790;37.572;2022-12-24T06:39:02;98804.35;;;4.26;81.23
20228;BME280;12195;55.790;37.572;2022-12-24T06:41:34;98804.25;;;4.28;81.18
20228;BME280;12195;55.790;37.572;2022-12-24T06:44:08;98804.25;;;4.28;81.16
20228;BME280;12195;55.790;37.572;2022-12-24T06:46:40;98806.79;;;4.29;81.38
20228;BME280;12195;55.790;37.572;2022-12-24T06:49:13;98801.53;;;4.31;81.35
20228;BME280;12195;55.790;37.572;2022-12-24T06:51:45;98799.73;;;4.33;81.37
20228;BME280;12195;55.790;37.572;2022-12-24T06:54:17;98801.34;;;4.35;81.23
20228;BME280;12195;55.790;37.572;2022-12-24T06:56:50;98798.74;;;4.35;81.25
20228;BME280;12195;55.790;37.572;2022-12-24T06:59:22;98798.68;;;4.37;81.26
20228;BME280;12195;55.790;37.572;2022-12-24T07:01:55;98786.52;;;4.37;80.91
20228;BME280;12195;55.790;37.572;2022-12-24T07:04:27;98788.28;;;4.37;81.06
20228;BME280;12195;55.790;37.572;2022-12-24T07:07:00;98792.75;;;4.33;81.34
20228;BME280;12195;55.790;37.572;2022-12-24T07:09:32;98795.29;;;4.35;81.08
20228;BME280;12195;55.790;37.572;2022-12-24T07:12:05;98798.81;;;4.34;81.44
20228;BME280;12195;55.790;37.572;2022-12-24T07:14:37;98796.97;;;4.36;80.89
20228;BME280;12195;55.790;37.572;2022-12-24T07:17:09;98793.61;;;4.34;81.13
20228;BME280;12195;55.790;37.572;2022-12-24T07:19:41;98794.59;;;4.31;81.30
20228;BME280;12195;55.790;37.572;2022-12-24T07:22:14;98795.35;;;4.33;81.16
20228;BME280;12195;55.790;37.572;2022-12-24T07:24:46;98795.42;;;4.32;81.30
20228;BME280;12195;55.790;37.572;2022-12-24T07:27:18;98796.14;;;4.35;81.17
20228;BME280;12195;55.790;37.572;2022-12-24T07:29:51;98796.14;;;4.35;81.47
20228;BME280;12195;55.790;37.572;2022-12-24T07:32:23;98797.89;;;4.35;81.13
20228;BME280;12195;55.790;37.572;2022-12-24T07:34:56;98793.67;;;4.32;81.46
20228;BME280;12195;55.790;37.572;2022-12-24T07:37:30;98799.73;;;4.33;81.35
20228;BME280;12195;55.790;37.572;2022-12-24T07:40:03;98798.81;;;4.34;81.42
20228;BME280;12195;55.790;37.572;2022-12-24T07:42:37;98786.64;;;4.34;81.46
20228;BME280;12195;55.790;37.572;2022-12-24T07:45:10;98794.37;;;4.36;81.44
20228;BME280;12195;55.790;37.572;2022-12-24T07:47:42;98789.17;;;4.36;81.49
20228;BME280;12195;55.790;37.572;2022-12-24T07:50:14;98790.03;;;4.36;81.48
20228;BME280;12195;55.790;37.572;2022-12-24T07:52:47;98794.30;;;4.37;81.52
20228;BME280;12195;55.790;37.572;2022-12-24T07:55:19;98798.68;;;4.37;81.49
20228;BME280;12195;55.790;37.572;2022-12-24T07:57:51;98787.43;;;4.36;81.44
20228;BME280;12195;55.790;37.572;2022-12-24T08:00:23;98789.11;;;4.37;81.61
20228;BME280;12195;55.790;37.572;2022-12-24T08:02:56;98791.64;;;4.39;81.69
20228;BME280;12195;55.790;37.572;2022-12-24T08:05:34;98794.11;;;4.42;81.34
20228;BME280;12195;55.790;37.572;2022-12-24T08:08:06;98788.92;;;4.42;81.45
20228;BME280;12195;55.790;37.572;2022-12-24T08:10:40;98791.52;;;4.42;81.56
20228;BME280;12195;55.790;37.572;2022-12-24T08:13:13;98789.74;;;4.42;81.46
20228;BME280;12195;55.790;37.572;2022-12-24T08:15:45;98789.84;;;4.41;81.31
20228;BME280;12195;55.790;37.572;2022-12-24T08:18:17;98789.84;;;4.41;81.43
20228;BME280;12195;55.790;37.572;2022-12-24T08:20:50;98789.84;;;4.41;81.21
20228;BME280;12195;55.790;37.572;2022-12-24T08:23:22;98788.92;;;4.42;81.55
20228;BME280;12195;55.790;37.572;2022-12-24T08:25:54;98795.03;;;4.41;81.51
20228;BME280;12195;55.790;37.572;2022-12-24T08:28:26;98790.59;;;4.43;81.01
20228;BME280;12195;55.790;37.572;2022-12-24T08:30:59;98792.44;;;4.41;81.29
20228;BME280;12195;55.790;37.572;2022-12-24T08:33:31;98789.84;;;4.41;81.32
20228;BME280;12195;55.790;37.572;2022-12-24T08:36:04;98788.98;;;4.40;81.13
20228;BME280;12195;55.790;37.572;2022-12-24T08:38:36;98789.84;;;4.41;81.61
20228;BME280;12195;55.790;37.572;2022-12-24T08:41:09;98785.40;;;4.43;80.84
20228;BME280;12195;55.790;37.572;2022-12-24T08:43:41;98786.38;;;4.40;80.92
20228;BME280;12195;55.790;37.572;2022-12-24T08:46:13;98785.53;;;4.40;81.30
20228;BME280;12195;55.790;37.572;2022-12-24T08:48:45;98788.13;;;4.40;81.25
20228;BME280;12195;55.790;37.572;2022-12-24T08:51:18;98771.55;;;4.42;81.22
20228;BME280;12195;55.790;37.572;2022-12-24T08:53:50;98780.33;;;4.40;81.43
20228;BME280;12195;55.790;37.572;2022-12-24T08:56:22;98785.40;;;4.43;81.11
20228;BME280;12195;55.790;37.572;2022-12-24T08:58:54;98785.40;;;4.43;81.09
20228;BME280;12195;55.790;37.572;2022-12-24T09:01:27;98776.84;;;4.41;81.15
20228;BME280;12195;55.790;37.572;2022-12-24T09:04:01;98779.45;;;4.41;81.06
20228;BME280;12195;55.790;37.572;2022-12-24T09:06:33;98782.80;;;4.43;81.51
20228;BME280;12195;55.790;37.572;2022-12-24T09:09:06;98777.47;;;4.46;81.45
20228;BME280;12195;55.790;37.572;2022-12-24T09:11:38;98770.38;;;4.49;81.60
20228;BME280;12195;55.790;37.572;2022-12-24T09:14:11;98776.36;;;4.51;81.46
20228;BME280;12195;55.790;37.572;2022-12-24T09:16:43;98772.84;;;4.52;81.33
20228;BME280;12195;55.790;37.572;2022-12-24T09:19:15;98782.31;;;4.53;81.17
20228;BME280;12195;55.790;37.572;2022-12-24T09:21:48;98773.66;;;4.53;81.40
20228;BME280;12195;55.790;37.572;2022-12-24T09:24:20;98770.17;;;4.54;81.09
20228;BME280;12195;55.790;37.572;2022-12-24T09:26:53;98763.20;;;4.54;81.10
20228;BME280;12195;55.790;37.572;2022-12-24T09:29:27;98759.78;;;4.54;81.38
20228;BME280;12195;55.790;37.572;2022-12-24T09:31:59;98761.46;;;4.55;81.47
20228;BME280;12195;55.790;37.572;2022-12-24T09:34:31;98755.34;;;4.56;81.28
20228;BME280;12195;55.790;37.572;2022-12-24T09:37:04;98755.27;;;4.57;81.34
20228;BME280;12195;55.790;37.572;2022-12-24T09:39:36;98755.27;;;4.57;81.08
20228;BME280;12195;55.790;37.572;2022-12-24T09:44:55;98744.02;;;4.57;80.98
20228;BME280;12195;55.790;37.572;2022-12-24T09:47:51;98751.75;;;4.58;81.02
20228;BME280;12195;55.790;37.572;2022-12-24T09:50:32;98751.75;;;4.58;80.42
20228;BME280;12195;55.790;37.572;2022-12-24T09:53:03;98743.27;;;4.55;80.73
20228;BME280;12195;55.790;37.572;2022-12-24T09:55:51;98751.98;;;4.54;80.40
20228;BME280;12195;55.790;37.572;2022-12-24T09:58:28;98754.72;;;4.51;80.48
20228;BME280;12195;55.790;37.572;2022-12-24T10:01:00;98747.84;;;4.50;80.48
20228;BME280;12195;55.790;37.572;2022-12-24T10:03:33;98762.58;;;4.49;80.45
20228;BME280;12195;55.790;37.572;2022-12-24T10:06:19;98763.69;;;4.44;80.61
20228;BME280;12195;55.790;37.572;2022-12-24T10:18:17;98754.58;;;4.35;80.50
20228;BME280;12195;55.790;37.572;2022-12-24T10:23:59;98753.22;;;4.27;80.67
20228;BME280;12195;55.790;37.572;2022-12-24T10:26:34;98759.46;;;4.23;80.74
20228;BME280;12195;55.790;37.572;2022-12-24T10:29:02;98757.78;;;4.22;80.53
20228;BME280;12195;55.790;37.572;2022-12-24T10:31:40;98765.77;;;4.17;80.70
20228;BME280;12195;55.790;37.572;2022-12-24T10:34:18;98763.39;;;4.13;80.64
20228;BME280;12195;55.790;37.572;2022-12-24T10:36:51;98760.98;;;4.08;80.86
20228;BME280;12195;55.790;37.572;2022-12-24T10:39:25;98750.72;;;4.05;81.00
20228;BME280;12195;55.790;37.572;2022-12-24T10:41:58;98760.34;;;4.03;81.35
20228;BME280;12195;55.790;37.572;2022-12-24T10:44:32;98751.70;;;4.03;81.34
20228;BME280;12195;55.790;37.572;2022-12-24T10:47:07;98752.74;;;3.99;81.41
20228;BME280;12195;55.790;37.572;2022-12-24T10:50:00;98760.53;;;3.99;81.26
20228;BME280;12195;55.790;37.572;2022-12-24T10:52:36;98762.49;;;3.94;81.43
20228;BME280;12195;55.790;37.572;2022-12-24T10:58:01;98754.89;;;3.89;81.16
20228;BME280;12195;55.790;37.572;2022-12-24T11:00:34;98757.30;;;3.94;81.49
20228;BME280;12195;55.790;37.572;2022-12-24T11:06:10;98767.69;;;3.94;80.80
20228;BME280;12195;55.790;37.572;2022-12-24T11:08:43;98764.45;;;3.89;81.01
20228;BME280;12195;55.790;37.572;2022-12-24T11:11:17;98763.66;;;3.87;81.02
20228;BME280;12195;55.790;37.572;2022-12-24T11:13:53;98781.83;;;3.87;81.27
20228;BME280;12195;55.790;37.572;2022-12-24T11:16:34;98774.95;;;3.86;81.26
20228;BME280;12195;55.790;37.572;2022-12-24T11:19:14;98785.41;;;3.84;80.87
20228;BME280;12195;55.790;37.572;2022-12-24T11:21:43;98779.23;;;3.87;79.94
20228;BME280;12195;55.790;37.572;2022-12-24T11:24:30;98779.45;;;3.82;79.82
20228;BME280;12195;55.790;37.572;2022-12-24T11:27:26;98788.45;;;3.74;79.96
20228;BME280;12195;55.790;37.572;2022-12-24T11:32:49;98789.87;;;3.61;80.22
20228;BME280;12195;55.790;37.572;2022-12-24T11:35:24;98787.28;;;3.61;80.51
20228;BME280;12195;55.790;37.572;2022-12-24T11:40:40;98795.24;;;3.56;81.07
20228;BME280;12195;55.790;37.572;2022-12-24T11:43:17;98796.16;;;3.55;81.36
20228;BME280;12195;55.790;37.572;2022-12-24T11:45:55;98797.08;;;3.54;81.78
20228;BME280;12195;55.790;37.572;2022-12-24T11:48:32;98815.12;;;3.57;81.87
20228;BME280;12195;55.790;37.572;2022-12-24T11:51:08;98810.76;;;3.58;81.55
20228;BME280;12195;55.790;37.572;2022-12-24T11:53:48;98808.22;;;3.56;81.96
20228;BME280;12195;55.790;37.572;2022-12-24T11:56:43;98808.31;;;3.55;82.68
20228;BME280;12195;55.790;37.572;2022-12-24T11:59:29;98826.33;;;3.58;82.77
20228;BME280;12195;55.790;37.572;2022-12-24T12:02:18;98826.27;;;3.59;82.69
20228;BME280;12195;55.790;37.572;2022-12-24T12:04:54;98827.18;;;3.58;81.85
20228;BME280;12195;55.790;37.572;2022-12-24T12:07:29;98825.56;;;3.56;82.24
20228;BME280;12195;55.790;37.572;2022-12-24T12:10:16;98829.83;;;3.57;82.23
20228;BME280;12195;55.790;37.572;2022-12-24T12:15:54;98844.70;;;3.53;82.86
20228;BME280;12195;55.790;37.572;2022-12-24T12:18:14;98836.91;;;3.53;82.83
20228;BME280;12195;55.790;37.572;2022-12-24T12:20:49;98842.05;;;3.55;83.11
20228;BME280;12195;55.790;37.572;2022-12-24T12:24:12;98845.41;;;3.57;83.40
20228;BME280;12195;55.790;37.572;2022-12-24T12:26:11;98851.30;;;3.60;83.13
20228;BME280;12195;55.790;37.572;2022-12-24T12:31:37;98859.95;;;3.61;83.31
20228;BME280;12195;55.790;37.572;2022-12-24T12:34:16;98853.84;;;3.62;83.58
20228;BME280;12195;55.790;37.572;2022-12-24T12:36:59;98856.44;;;3.62;83.58
20228;BME280;12195;55.790;37.572;2022-12-24T12:39:29;98854.70;;;3.62;83.49
20228;BME280;12195;55.790;37.572;2022-12-24T12:47:58;98872.80;;;3.64;83.31
20228;BME280;12195;55.790;37.572;2022-12-24T12:51:08;98875.45;;;3.62;83.47
20228;BME280;12195;55.790;37.572;2022-12-24T12:56:43;98878.11;;;3.61;83.44
20228;BME280;12195;55.790;37.572;2022-12-24T12:59:40;98881.62;;;3.60;83.70
20228;BME280;12195;55.790;37.572;2022-12-24T13:11:01;98893.63;;;3.62;83.89
20228;BME280;12195;55.790;37.572;2022-12-24T13:13:47;98893.56;;;3.64;83.64
20228;BME280;12195;55.790;37.572;2022-12-24T13:16:28;98902.92;;;3.68;83.60
20228;BME280;12195;55.790;37.572;2022-12-24T13:19:07;98904.72;;;3.66;83.47
20228;BME280;12195;55.790;37.572;2022-12-24T13:21:42;98913.36;;;3.66;83.78
20228;BME280;12195;55.790;37.572;2022-12-24T13:24:17;98911.36;;;3.73;83.74
20228;BME280;12195;55.790;37.572;2022-12-24T13:27:05;98921.09;;;3.68;83.79
20228;BME280;12195;55.790;37.572;2022-12-24T13:29:57;98922.71;;;3.70;83.55
20228;BME280;12195;55.790;37.572;2022-12-24T13:32:49;98934.01;;;3.69;83.88
20228;BME280;12195;55.790;37.572;2022-12-24T13:44:15;98940.63;;;3.76;84.09
20228;BME280;12195;55.790;37.572;2022-12-24T13:46:49;98951.75;;;3.80;83.95
20228;BME280;12195;55.790;37.572;2022-12-24T13:49:37;98942.14;;;3.82;83.92
20228;BME280;12195;55.790;37.572;2022-12-24T13:57:50;98945.22;;;3.91;83.51
20228;BME280;12195;55.790;37.572;2022-12-24T14:05:50;98965.02;;;3.94;83.34
20228;BME280;12195;55.790;37.572;2022-12-24T14:11:17;98979.52;;;3.99;82.15
20228;BME280;12195;55.790;37.572;2022-12-24T14:13:53;98983.84;;;3.99;82.51
20228;BME280;12195;55.790;37.572;2022-12-24T14:16:29;98990.75;;;4.00;81.93
20228;BME280;12195;55.790;37.572;2022-12-24T14:22:18;98988.27;;;3.97;81.54
20228;BME280;12195;55.790;37.572;2022-12-24T14:24:51;98989.24;;;3.94;82.00
20228;BME280;12195;55.790;37.572;2022-12-24T14:27:27;98995.63;;;4.07;80.55
20228;BME280;12195;55.790;37.572;2022-12-24T14:30:06;99006.45;;;3.97;81.57
20228;BME280;12195;55.790;37.572;2022-12-24T14:32:40;99012.47;;;3.97;81.50
20228;BME280;12195;55.790;37.572;2022-12-24T14:35:28;99017.75;;;3.96;81.88
20228;BME280;12195;55.790;37.572;2022-12-24T14:38:02;99016.03;;;3.95;82.12
20228;BME280;12195;55.790;37.572;2022-12-24T14:41:16;99023.77;;;3.96;82.15
20228;BME280;12195;55.790;37.572;2022-12-24T14:46:23;99021.00;;;4.01;82.38
20228;BME280;12195;55.790;37.572;2022-12-24T14:49:24;99019.98;;;4.05;81.96
20228;BME280;12195;55.790;37.572;2022-12-24T14:54:37;99031.02;;;4.10;81.66
20228;BME280;12195;55.790;37.572;2022-12-24T14:59:56;99035.56;;;4.05;81.83
20228;BME280;12195;55.790;37.572;2022-12-24T15:02:42;99037.12;;;4.09;81.26
20228;BME280;12195;55.790;37.572;2022-12-24T15:05:18;99038.02;;;4.08;80.81
20228;BME280;12195;55.790;37.572;2022-12-24T15:07:56;99048.55;;;4.05;80.88
20228;BME280;12195;55.790;37.572;2022-12-24T15:10:36;99050.34;;;4.03;80.68
20228;BME280;12195;55.790;37.572;2022-12-24T15:13:16;99058.27;;;4.00;81.22
20228;BME280;12195;55.790;37.572;2022-12-24T15:15:51;99053.08;;;4.00;81.65
20228;BME280;12195;55.790;37.572;2022-12-24T15:18:26;99053.91;;;4.00;82.22
20228;BME280;12195;55.790;37.572;2022-12-24T15:21:01;99069.32;;;4.05;82.79
20228;BME280;12195;55.790;37.572;2022-12-24T15:23:36;99060.50;;;4.09;82.50
20228;BME280;12195;55.790;37.572;2022-12-24T15:28:46;99061.88;;;4.17;82.16
20228;BME280;12195;55.790;37.572;2022-12-24T15:31:20;99067.02;;;4.19;82.10